sensor_id;sensor_type;location;lat;lon;timestamp;pressure;altitude;pressure_sealevel;temperature;humidity
30302;BME280;17111;52.130;5.028;2023-02-23T00:00:29;101416.41;;;16.72;57.17
30302;BME280;17111;52.130;5.028;2023-02-23T00:02:59;101418.22;;;16.71;57.22
30302;BME280;17111;52.130;5.028;2023-02-23T00:05:29;101414.69;;;16.71;57.11
30302;BME280;17111;52.130;5.028;2023-02-23T00:07:56;101417.38;;;16.71;57.27
30302;BME280;17111;52.130;5.028;2023-02-23T00:10:23;101413.84;;;16.70;57.31
30302;BME280;17111;52.130;5.028;2023-02-23T00:12:57;101415.56;;;16.71;57.62
30302;BME280;17111;52.130;5.028;2023-02-23T00:15:27;101416.53;;;16.70;57.45
30302;BME280;17111;52.130;5.028;2023-02-23T00:17:56;101412.03;;;16.71;57.50
30302;BME280;17111;52.130;5.028;2023-02-23T00:20:23;101410.34;;;16.70;57.19
30302;BME280;17111;52.130;5.028;2023-02-23T00:22:55;101406.81;;;16.69;57.43
30302;BME280;17111;52.130;5.028;2023-02-23T00:25:23;101410.47;;;16.68;57.07
30302;BME280;17111;52.130;5.028;2023-02-23T00:27:50;101412.16;;;16.69;57.07
30302;BME280;17111;52.130;5.028;2023-02-23T00:30:18;101412.16;;;16.69;57.45
30302;BME280;17111;52.130;5.028;2023-02-23T00:32:45;101412.16;;;16.69;57.57
30302;BME280;17111;52.130;5.028;2023-02-23T00:35:12;101412.28;;;16.68;57.50
30302;BME280;17111;52.130;5.028;2023-02-23T00:37:45;101412.28;;;16.68;57.31
30302;BME280;17111;52.130;5.028;2023-02-23T00:40:14;101410.59;;;16.67;56.80
30302;BME280;17111;52.130;5.028;2023-02-23T00:42:43;101411.44;;;16.67;57.35
30302;BME280;17111;52.130;5.028;2023-02-23T00:45:11;101412.28;;;16.68;56.91
30302;BME280;17111;52.130;5.028;2023-02-23T00:47:41;101406.09;;;16.67;57.63
30302;BME280;17111;52.130;5.028;2023-02-23T00:50:12;101405.25;;;16.67;56.97
30302;BME280;17111;52.130;5.028;2023-02-23T00:52:43;101410.59;;;16.67;57.16
30302;BME280;17111;52.130;5.028;2023-02-23T00:55:11;101409.75;;;16.66;57.46
30302;BME280;17111;52.130;5.028;2023-02-23T00:57:38;101408.06;;;16.65;57.84
30302;BME280;17111;52.130;5.028;2023-02-23T01:00:07;101396.50;;;16.65;57.83
30302;BME280;17111;52.130;5.028;2023-02-23T01:02:46;101403.56;;;16.66;57.75
30302;BME280;17111;52.130;5.028;2023-02-23T01:05:13;101408.16;;;16.64;57.10
30302;BME280;17111;52.130;5.028;2023-02-23T01:07:40;101407.22;;;16.65;57.44
30302;BME280;17111;52.130;5.028;2023-02-23T01:10:07;101402.72;;;16.65;57.27
30302;BME280;17111;52.130;5.028;2023-02-23T01:12:49;101400.03;;;16.65;57.27
30302;BME280;17111;52.130;5.028;2023-02-23T01:15:17;101407.22;;;16.65;57.76
30302;BME280;17111;52.130;5.028;2023-02-23T01:17:44;101408.06;;;16.65;57.64
30302;BME280;17111;52.130;5.028;2023-02-23T01:20:13;101401.88;;;16.65;57.24
30302;BME280;17111;52.130;5.028;2023-02-23T01:22:46;101401.88;;;16.65;57.17
30302;BME280;17111;52.130;5.028;2023-02-23T01:25:14;101402.81;;;16.64;57.84
30302;BME280;17111;52.130;5.028;2023-02-23T01:27:42;101399.28;;;16.63;57.62
30302;BME280;17111;52.130;5.028;2023-02-23T01:30:11;101407.31;;;16.63;57.44
30302;BME280;17111;52.130;5.028;2023-02-23T01:32:38;101406.47;;;16.63;57.51
30302;BME280;17111;52.130;5.028;2023-02-23T01:35:07;101404.66;;;16.63;57.60
30302;BME280;17111;52.130;5.028;2023-02-23T01:37:36;101407.31;;;16.63;57.55
30302;BME280;17111;52.130;5.028;2023-02-23T01:40:09;101410.00;;;16.63;58.09
30302;BME280;17111;52.130;5.028;2023-02-23T01:42:43;101405.63;;;16.62;58.00
30302;BME280;17111;52.130;5.028;2023-02-23T01:45:20;101411.00;;;16.62;57.98
30302;BME280;17111;52.130;5.028;2023-02-23T01:47:49;101407.47;;;16.62;57.73
30302;BME280;17111;52.130;5.028;2023-02-23T01:50:17;101403.94;;;16.61;57.57
30302;BME280;17111;52.130;5.028;2023-02-23T01:52:46;101407.47;;;16.62;57.73
30302;BME280;17111;52.130;5.028;2023-02-23T01:55:16;101411.97;;;16.61;57.76
30302;BME280;17111;52.130;5.028;2023-02-23T01:57:49;101412.09;;;16.60;57.56
30302;BME280;17111;52.130;5.028;2023-02-23T02:00:18;101407.31;;;16.63;57.92
30302;BME280;17111;52.130;5.028;2023-02-23T02:02:45;101421.69;;;16.62;57.50
30302;BME280;17111;52.130;5.028;2023-02-23T02:05:15;101411.97;;;16.61;57.99
30302;BME280;17111;52.130;5.028;2023-02-23T02:07:46;101421.84;;;16.61;57.30
30302;BME280;17111;52.130;5.028;2023-02-23T02:10:14;101420.97;;;16.60;57.36
30302;BME280;17111;52.130;5.028;2023-02-23T02:12:45;101423.63;;;16.60;57.42
30302;BME280;17111;52.130;5.028;2023-02-23T02:15:17;101420.13;;;16.60;58.03
30302;BME280;17111;52.130;5.028;2023-02-23T02:20:36;101421.09;;;16.59;58.02
30302;BME280;17111;52.130;5.028;2023-02-23T02:23:39;101415.75;;;16.59;57.90
30302;BME280;17111;52.130;5.028;2023-02-23T02:32:25;101415.06;;;16.57;57.66
30302;BME280;17111;52.130;5.028;2023-02-23T02:35:02;101424.75;;;16.58;57.46
30302;BME280;17111;52.130;5.028;2023-02-23T02:38:13;101422.94;;;16.58;57.67
30302;BME280;17111;52.130;5.028;2023-02-23T02:46:16;101415.06;;;16.57;57.96
30302;BME280;17111;52.130;5.028;2023-02-23T02:49:18;101415.16;;;16.55;58.10
30302;BME280;17111;52.130;5.028;2023-02-23T02:51:56;101413.31;;;16.56;57.66
30302;BME280;17111;52.130;5.028;2023-02-23T02:54:33;101415.16;;;16.55;57.98
30302;BME280;17111;52.130;5.028;2023-02-23T02:57:03;101407.97;;;16.56;57.34
30302;BME280;17111;52.130;5.028;2023-02-23T02:59:44;101412.47;;;16.55;57.77
30302;BME280;17111;52.130;5.028;2023-02-23T03:02:32;101408.13;;;16.54;57.49
30302;BME280;17111;52.130;5.028;2023-02-23T03:05:21;101410.78;;;16.54;58.12
30302;BME280;17111;52.130;5.028;2023-02-23T03:11:14;101413.47;;;16.54;57.76
30302;BME280;17111;52.130;5.028;2023-02-23T03:17:31;101407.38;;;16.52;58.09
30302;BME280;17111;52.130;5.028;2023-02-23T03:20:28;101409.09;;;16.53;57.71
30302;BME280;17111;52.130;5.028;2023-02-23T03:23:38;101406.53;;;16.51;57.81
30302;BME280;17111;52.130;5.028;2023-02-23T03:26:54;101419.91;;;16.51;57.46
30302;BME280;17111;52.130;5.028;2023-02-23T03:30:03;101411.03;;;16.51;57.55
30302;BME280;17111;52.130;5.028;2023-02-23T03:32:56;101411.88;;;16.51;57.80
30302;BME280;17111;52.130;5.028;2023-02-23T03:35:51;101419.06;;;16.51;58.22
30302;BME280;17111;52.130;5.028;2023-02-23T03:41:35;101423.59;;;16.50;57.78
30302;BME280;17111;52.130;5.028;2023-02-23T03:44:27;101420.06;;;16.50;58.40
30302;BME280;17111;52.130;5.028;2023-02-23T03:47:16;101420.06;;;16.50;57.78
30302;BME280;17111;52.130;5.028;2023-02-23T03:50:05;101427.25;;;16.49;57.74
30302;BME280;17111;52.130;5.028;2023-02-23T03:52:55;101428.09;;;16.50;57.82
30302;BME280;17111;52.130;5.028;2023-02-23T03:55:45;101433.44;;;16.50;58.01
30302;BME280;17111;52.130;5.028;2023-02-23T03:58:37;101432.59;;;16.49;57.65
30302;BME280;17111;52.130;5.028;2023-02-23T04:01:25;101435.28;;;16.49;57.48
30302;BME280;17111;52.130;5.028;2023-02-23T04:04:11;101437.94;;;16.49;58.26
30302;BME280;17111;52.130;5.028;2023-02-23T04:06:58;101436.13;;;16.50;58.03
30302;BME280;17111;52.130;5.028;2023-02-23T04:09:45;101438.78;;;16.50;57.66
30302;BME280;17111;52.130;5.028;2023-02-23T04:12:36;101445.97;;;16.49;57.88
30302;BME280;17111;52.130;5.028;2023-02-23T04:17:55;101452.16;;;16.50;58.16
30302;BME280;17111;52.130;5.028;2023-02-23T04:20:21;101455.84;;;16.49;57.60
30302;BME280;17111;52.130;5.028;2023-02-23T04:22:48;101452.31;;;16.48;58.02
30302;BME280;17111;52.130;5.028;2023-02-23T04:25:14;101460.34;;;16.48;58.01
30302;BME280;17111;52.130;5.028;2023-02-23T04:27:42;101455.00;;;16.48;57.37
30302;BME280;17111;52.130;5.028;2023-02-23T04:30:09;101461.19;;;16.49;57.75
30302;BME280;17111;52.130;5.028;2023-02-23T04:32:37;101465.69;;;16.48;57.54
30302;BME280;17111;52.130;5.028;2023-02-23T04:35:03;101458.63;;;16.47;58.43
30302;BME280;17111;52.130;5.028;2023-02-23T04:37:30;101462.13;;;16.48;57.85
30302;BME280;17111;52.130;5.028;2023-02-23T04:39:57;101455.94;;;16.47;57.96
30302;BME280;17111;52.130;5.028;2023-02-23T04:42:23;101462.13;;;16.48;58.39
30302;BME280;17111;52.130;5.028;2023-02-23T04:44:50;101457.66;;;16.48;57.79
30302;BME280;17111;52.130;5.028;2023-02-23T04:47:16;101457.78;;;16.47;58.20
30302;BME280;17111;52.130;5.028;2023-02-23T04:49:43;101463.97;;;16.47;58.10
30302;BME280;17111;52.130;5.028;2023-02-23T04:52:10;101460.44;;;16.47;58.21
30302;BME280;17111;52.130;5.028;2023-02-23T04:54:37;101459.59;;;16.46;58.64
30302;BME280;17111;52.130;5.028;2023-02-23T04:57:05;101463.13;;;16.47;58.00
30302;BME280;17111;52.130;5.028;2023-02-23T04:59:32;101467.63;;;16.46;57.54
30302;BME280;17111;52.130;5.028;2023-02-23T05:01:59;101468.47;;;16.47;58.09
30302;BME280;17111;52.130;5.028;2023-02-23T05:04:25;101461.44;;;16.46;57.92
30302;BME280;17111;52.130;5.028;2023-02-23T05:06:52;101462.28;;;16.46;57.95
30302;BME280;17111;52.130;5.028;2023-02-23T05:09:19;101464.94;;;16.46;58.44
30302;BME280;17111;52.130;5.028;2023-02-23T05:11:45;101466.78;;;16.46;58.15
30302;BME280;17111;52.130;5.028;2023-02-23T05:14:12;101473.97;;;16.45;58.10
30302;BME280;17111;52.130;5.028;2023-02-23T05:16:39;101467.75;;;16.45;58.17
30302;BME280;17111;52.130;5.028;2023-02-23T05:19:05;101472.28;;;16.44;58.11
30302;BME280;17111;52.130;5.028;2023-02-23T05:21:32;101476.75;;;16.44;57.46
30302;BME280;17111;52.130;5.028;2023-02-23T05:23:59;101481.25;;;16.43;58.38
30302;BME280;17111;52.130;5.028;2023-02-23T05:26:25;101490.13;;;16.44;58.29
30302;BME280;17111;52.130;5.028;2023-02-23T05:28:52;101485.75;;;16.43;58.00
30302;BME280;17111;52.130;5.028;2023-02-23T05:31:19;101485.66;;;16.44;57.65
30302;BME280;17111;52.130;5.028;2023-02-23T05:33:47;101488.44;;;16.43;57.56
30302;BME280;17111;52.130;5.028;2023-02-23T05:36:16;101488.44;;;16.43;58.24
30302;BME280;17111;52.130;5.028;2023-02-23T05:38:43;101483.09;;;16.43;57.36
30302;BME280;17111;52.130;5.028;2023-02-23T05:41:13;101485.75;;;16.43;58.28
30302;BME280;17111;52.130;5.028;2023-02-23T05:43:40;101483.09;;;16.43;58.47
30302;BME280;17111;52.130;5.028;2023-02-23T05:46:16;101488.56;;;16.41;57.88
30302;BME280;17111;52.130;5.028;2023-02-23T05:48:44;101488.56;;;16.41;57.62
30302;BME280;17111;52.130;5.028;2023-02-23T05:51:12;101482.38;;;16.41;57.68
30302;BME280;17111;52.130;5.028;2023-02-23T05:53:40;101495.75;;;16.41;57.62
30302;BME280;17111;52.130;5.028;2023-02-23T05:56:09;101495.75;;;16.41;57.58
30302;BME280;17111;52.130;5.028;2023-02-23T05:58:37;101493.94;;;16.41;57.99
30302;BME280;17111;52.130;5.028;2023-02-23T06:01:03;101494.78;;;16.42;57.83
30302;BME280;17111;52.130;5.028;2023-02-23T06:03:30;101501.94;;;16.41;57.56
30302;BME280;17111;52.130;5.028;2023-02-23T06:05:57;101495.63;;;16.42;57.69
30302;BME280;17111;52.130;5.028;2023-02-23T06:08:24;101492.09;;;16.42;57.57
30302;BME280;17111;52.130;5.028;2023-02-23T06:10:51;101497.59;;;16.40;57.66
30302;BME280;17111;52.130;5.028;2023-02-23T06:13:18;101502.78;;;16.42;57.86
30302;BME280;17111;52.130;5.028;2023-02-23T06:15:46;101512.50;;;16.43;57.73
30302;BME280;17111;52.130;5.028;2023-02-23T06:18:14;101509.97;;;16.41;57.43
30302;BME280;17111;52.130;5.028;2023-02-23T06:20:42;101507.31;;;16.41;58.19
30302;BME280;17111;52.130;5.028;2023-02-23T06:23:10;101507.31;;;16.41;57.91
30302;BME280;17111;52.130;5.028;2023-02-23T06:25:37;101511.66;;;16.42;58.52
30302;BME280;17111;52.130;5.028;2023-02-23T06:28:03;101519.69;;;16.42;58.44
30302;BME280;17111;52.130;5.028;2023-02-23T06:30:30;101513.50;;;16.42;58.10
30302;BME280;17111;52.130;5.028;2023-02-23T06:32:57;101515.34;;;16.41;57.87
30302;BME280;17111;52.130;5.028;2023-02-23T06:35:23;101519.84;;;16.41;58.18
30302;BME280;17111;52.130;5.028;2023-02-23T06:37:51;101519.84;;;16.41;57.79
30302;BME280;17111;52.130;5.028;2023-02-23T06:40:19;101519.84;;;16.41;58.34
30302;BME280;17111;52.130;5.028;2023-02-23T06:42:46;101519.00;;;16.40;57.83
30302;BME280;17111;52.130;5.028;2023-02-23T06:45:12;101524.34;;;16.40;58.06
30302;BME280;17111;52.130;5.028;2023-02-23T06:47:39;101524.34;;;16.40;58.28
30302;BME280;17111;52.130;5.028;2023-02-23T06:50:07;101532.47;;;16.39;58.18
30302;BME280;17111;52.130;5.028;2023-02-23T06:52:34;101526.13;;;16.40;57.48
30302;BME280;17111;52.130;5.028;2023-02-23T06:55:00;101543.06;;;16.40;57.59
30302;BME280;17111;52.130;5.028;2023-02-23T06:57:27;101529.78;;;16.39;57.97
30302;BME280;17111;52.130;5.028;2023-02-23T06:59:54;101540.50;;;16.39;57.60
30302;BME280;17111;52.130;5.028;2023-02-23T07:02:20;101533.47;;;16.38;58.25
30302;BME280;17111;52.130;5.028;2023-02-23T07:04:47;101535.16;;;16.39;57.97
30302;BME280;17111;52.130;5.028;2023-02-23T07:07:13;101541.34;;;16.39;57.63
30302;BME280;17111;52.130;5.028;2023-02-23T07:09:40;101549.50;;;16.38;57.48
30302;BME280;17111;52.130;5.028;2023-02-23T07:12:09;101550.34;;;16.38;57.67
30302;BME280;17111;52.130;5.028;2023-02-23T07:14:36;101558.38;;;16.38;58.22
30302;BME280;17111;52.130;5.028;2023-02-23T07:17:03;101565.56;;;16.38;58.09
30302;BME280;17111;52.130;5.028;2023-02-23T07:19:31;101570.06;;;16.37;58.02
30302;BME280;17111;52.130;5.028;2023-02-23T07:21:58;101574.44;;;16.38;57.58
30302;BME280;17111;52.130;5.028;2023-02-23T07:24:24;101572.75;;;16.37;57.22
30302;BME280;17111;52.130;5.028;2023-02-23T07:26:53;101582.47;;;16.38;57.10
30302;BME280;17111;52.130;5.028;2023-02-23T07:29:20;101581.63;;;16.38;57.34
30302;BME280;17111;52.130;5.028;2023-02-23T07:31:49;101583.44;;;16.37;57.69
30302;BME280;17111;52.130;5.028;2023-02-23T07:34:16;101586.97;;;16.38;57.93
30302;BME280;17111;52.130;5.028;2023-02-23T07:36:42;101596.81;;;16.37;57.65
30302;BME280;17111;52.130;5.028;2023-02-23T07:39:09;101600.34;;;16.38;57.69
30302;BME280;17111;52.130;5.028;2023-02-23T07:41:35;101596.69;;;16.39;57.75
30302;BME280;17111;52.130;5.028;2023-02-23T07:44:02;101605.69;;;16.38;57.38
30302;BME280;17111;52.130;5.028;2023-02-23T07:46:28;101608.38;;;16.38;57.33
30302;BME280;17111;52.130;5.028;2023-02-23T07:48:55;101603.88;;;16.38;57.99
30302;BME280;17111;52.130;5.028;2023-02-23T07:51:23;101608.38;;;16.38;57.64
30302;BME280;17111;52.130;5.028;2023-02-23T07:53:49;101610.06;;;16.39;57.26
30302;BME280;17111;52.130;5.028;2023-02-23T07:56:16;101601.19;;;16.38;57.32
30302;BME280;17111;52.130;5.028;2023-02-23T07:58:43;101612.72;;;16.39;57.85
30302;BME280;17111;52.130;5.028;2023-02-23T08:01:10;101613.59;;;16.39;57.84
30302;BME280;17111;52.130;5.028;2023-02-23T08:03:38;101617.97;;;16.40;57.35
30302;BME280;17111;52.130;5.028;2023-02-23T08:06:05;101617.09;;;16.40;57.77
30302;BME280;17111;52.130;5.028;2023-02-23T08:08:32;101622.47;;;16.40;57.52
30302;BME280;17111;52.130;5.028;2023-02-23T08:11:02;101627.81;;;16.40;57.51
30302;BME280;17111;52.130;5.028;2023-02-23T08:13:29;101629.53;;;16.41;57.49
30302;BME280;17111;52.130;5.028;2023-02-23T08:15:57;101637.66;;;16.39;57.26
30302;BME280;17111;52.130;5.028;2023-02-23T08:18:23;101647.41;;;16.40;58.08
30302;BME280;17111;52.130;5.028;2023-02-23T08:20:57;101645.69;;;16.39;57.43
30302;BME280;17111;52.130;5.028;2023-02-23T08:23:24;101646.53;;;16.40;56.84
30302;BME280;17111;52.130;5.028;2023-02-23T08:25:52;101648.25;;;16.41;57.71
30302;BME280;17111;52.130;5.028;2023-02-23T08:28:20;101650.94;;;16.41;57.31
30302;BME280;17111;52.130;5.028;2023-02-23T08:30:47;101647.41;;;16.40;57.17
30302;BME280;17111;52.130;5.028;2023-02-23T08:33:14;101650.09;;;16.40;57.04
30302;BME280;17111;52.130;5.028;2023-02-23T08:35:40;101642.06;;;16.40;56.98
30302;BME280;17111;52.130;5.028;2023-02-23T08:38:07;101649.09;;;16.41;57.19
30302;BME280;17111;52.130;5.028;2023-02-23T08:40:34;101644.75;;;16.40;56.93
30302;BME280;17111;52.130;5.028;2023-02-23T08:43:00;101649.94;;;16.42;57.17
30302;BME280;17111;52.130;5.028;2023-02-23T08:45:27;101652.63;;;16.42;56.76
30302;BME280;17111;52.130;5.028;2023-02-23T08:47:55;101656.16;;;16.42;57.67
30302;BME280;17111;52.130;5.028;2023-02-23T08:50:21;101658.81;;;16.42;57.13
30302;BME280;17111;52.130;5.028;2023-02-23T08:52:48;101657.84;;;16.43;57.28
30302;BME280;17111;52.130;5.028;2023-02-23T08:55:15;101665.03;;;16.43;57.99
30302;BME280;17111;52.130;5.028;2023-02-23T08:57:43;101669.41;;;16.44;57.26
30302;BME280;17111;52.130;5.028;2023-02-23T09:00:10;101674.75;;;16.44;57.11
30302;BME280;17111;52.130;5.028;2023-02-23T09:02:43;101676.47;;;16.45;57.00
30302;BME280;17111;52.130;5.028;2023-02-23T09:05:10;101676.47;;;16.45;57.74
30302;BME280;17111;52.130;5.028;2023-02-23T09:07:38;101678.16;;;16.46;57.48
30302;BME280;17111;52.130;5.028;2023-02-23T09:10:06;101685.22;;;16.47;56.82
30302;BME280;17111;52.130;5.028;2023-02-23T09:12:33;101680.84;;;16.46;57.03
30302;BME280;17111;52.130;5.028;2023-02-23T09:14:59;101688.88;;;16.46;56.82
30302;BME280;17111;52.130;5.028;2023-02-23T09:17:27;101689.56;;;16.48;57.02
30302;BME280;17111;52.130;5.028;2023-02-23T09:19:53;101689.56;;;16.48;56.82
30302;BME280;17111;52.130;5.028;2023-02-23T09:22:20;101696.66;;;16.49;57.24
30302;BME280;17111;52.130;5.028;2023-02-23T09:24:46;101696.66;;;16.49;57.02
30302;BME280;17111;52.130;5.028;2023-02-23T09:27:13;101700.28;;;16.48;56.75
30302;BME280;17111;52.130;5.028;2023-02-23T09:29:40;101702.00;;;16.49;57.71
30302;BME280;17111;52.130;5.028;2023-02-23T09:32:08;101702.97;;;16.48;56.63
30302;BME280;17111;52.130;5.028;2023-02-23T09:34:35;101712.72;;;16.49;56.89
30302;BME280;17111;52.130;5.028;2023-02-23T09:37:03;101709.19;;;16.48;56.93
30302;BME280;17111;52.130;5.028;2023-02-23T09:39:30;101703.72;;;16.50;57.49
30302;BME280;17111;52.130;5.028;2023-02-23T09:42:13;101709.19;;;16.48;56.98
30302;BME280;17111;52.130;5.028;2023-02-23T09:49:50;101709.91;;;16.50;57.56
30302;BME280;17111;52.130;5.028;2023-02-23T09:52:19;101709.06;;;16.50;56.80
30302;BME280;17111;52.130;5.028;2023-02-23T09:54:47;101716.09;;;16.51;56.66
30302;BME280;17111;52.130;5.028;2023-02-23T09:57:20;101713.44;;;16.51;57.42
30302;BME280;17111;52.130;5.028;2023-02-23T09:59:49;101717.78;;;16.52;56.83
30302;BME280;17111;52.130;5.028;2023-02-23T10:02:33;101708.06;;;16.51;56.88
30302;BME280;17111;52.130;5.028;2023-02-23T10:05:04;101712.44;;;16.52;56.92
30302;BME280;17111;52.130;5.028;2023-02-23T10:07:51;101715.13;;;16.52;57.50
30302;BME280;17111;52.130;5.028;2023-02-23T10:10:26;101719.53;;;16.53;57.06
30302;BME280;17111;52.130;5.028;2023-02-23T10:19:05;101714.03;;;16.54;57.00
30302;BME280;17111;52.130;5.028;2023-02-23T10:21:40;101722.06;;;16.54;56.66
30302;BME280;17111;52.130;5.028;2023-02-23T10:24:26;101719.53;;;16.53;57.16
30302;BME280;17111;52.130;5.028;2023-02-23T10:27:04;101737.28;;;16.54;56.62
30302;BME280;17111;52.130;5.028;2023-02-23T10:29:48;101729.25;;;16.54;56.70
30302;BME280;17111;52.130;5.028;2023-02-23T10:34:53;101720.22;;;16.55;56.89
30302;BME280;17111;52.130;5.028;2023-02-23T10:37:22;101724.59;;;16.56;57.07
30302;BME280;17111;52.130;5.028;2023-02-23T10:39:51;101724.59;;;16.56;56.88
30302;BME280;17111;52.130;5.028;2023-02-23T10:42:23;101729.97;;;16.56;57.68
30302;BME280;17111;52.130;5.028;2023-02-23T10:44:55;101738.88;;;16.57;57.31
30302;BME280;17111;52.130;5.028;2023-02-23T10:47:25;101737.88;;;16.58;56.96
30302;BME280;17111;52.130;5.028;2023-02-23T10:49:55;101735.06;;;16.59;57.09
30302;BME280;17111;52.130;5.028;2023-02-23T10:52:32;101737.88;;;16.58;56.80
30302;BME280;17111;52.130;5.028;2023-02-23T10:55:18;101736.78;;;16.60;56.79
30302;BME280;17111;52.130;5.028;2023-02-23T10:57:48;101739.34;;;16.62;56.57
30302;BME280;17111;52.130;5.028;2023-02-23T11:02:46;101738.50;;;16.61;56.38
30302;BME280;17111;52.130;5.028;2023-02-23T11:13:43;101743.84;;;16.61;56.55
30302;BME280;17111;52.130;5.028;2023-02-23T11:16:16;101735.91;;;16.60;56.90
30302;BME280;17111;52.130;5.028;2023-02-23T11:18:59;101744.81;;;16.60;56.38
30302;BME280;17111;52.130;5.028;2023-02-23T11:21:28;101753.72;;;16.61;57.02
30302;BME280;17111;52.130;5.028;2023-02-23T11:24:23;101760.16;;;16.58;56.71
30302;BME280;17111;52.130;5.028;2023-02-23T11:26:52;101757.34;;;16.60;56.55
30302;BME280;17111;52.130;5.028;2023-02-23T11:29:38;101756.50;;;16.59;56.71
30302;BME280;17111;52.130;5.028;2023-02-23T11:32:11;101754.78;;;16.58;56.87
30302;BME280;17111;52.130;5.028;2023-02-23T11:34:39;101753.94;;;16.58;56.90
30302;BME280;17111;52.130;5.028;2023-02-23T11:39:53;101758.44;;;16.57;56.72
30302;BME280;17111;52.130;5.028;2023-02-23T11:42:21;101756.63;;;16.58;56.88
30302;BME280;17111;52.130;5.028;2023-02-23T11:44:49;101752.25;;;16.57;56.69
30302;BME280;17111;52.130;5.028;2023-02-23T11:47:18;101742.25;;;16.59;56.77
30302;BME280;17111;52.130;5.028;2023-02-23T11:49:46;101744.09;;;16.58;56.32
30302;BME280;17111;52.130;5.028;2023-02-23T11:52:17;101738.72;;;16.58;56.87
30302;BME280;17111;52.130;5.028;2023-02-23T11:54:57;101741.41;;;16.58;56.36
30302;BME280;17111;52.130;5.028;2023-02-23T11:57:33;101743.00;;;16.61;56.80
30302;BME280;17111;52.130;5.028;2023-02-23T12:00:19;101740.31;;;16.61;56.95
30302;BME280;17111;52.130;5.028;2023-02-23T12:02:53;101741.16;;;16.61;56.02
30302;BME280;17111;52.130;5.028;2023-02-23T12:05:23;101750.91;;;16.62;56.75
30302;BME280;17111;52.130;5.028;2023-02-23T12:08:08;101743.72;;;16.63;56.15
30302;BME280;17111;52.130;5.028;2023-02-23T12:10:43;101741.03;;;16.63;56.69
30302;BME280;17111;52.130;5.028;2023-02-23T12:19:04;101741.03;;;16.63;56.09
30302;BME280;17111;52.130;5.028;2023-02-23T12:21:44;101747.25;;;16.63;56.88
30302;BME280;17111;52.130;5.028;2023-02-23T12:24:15;101744.47;;;16.65;56.78
30302;BME280;17111;52.130;5.028;2023-02-23T12:32:19;101747.13;;;16.65;56.04
30302;BME280;17111;52.130;5.028;2023-02-23T12:34:57;101744.56;;;16.63;56.77
30302;BME280;17111;52.130;5.028;2023-02-23T12:37:36;101740.06;;;16.64;56.98
30302;BME280;17111;52.130;5.028;2023-02-23T12:40:26;101734.84;;;16.62;56.48
30302;BME280;17111;52.130;5.028;2023-02-23T12:51:01;101750.66;;;16.65;56.40
30302;BME280;17111;52.130;5.028;2023-02-23T12:53:38;101747.00;;;16.66;56.01
30302;BME280;17111;52.130;5.028;2023-02-23T12:56:20;101745.16;;;16.67;56.38
30302;BME280;17111;52.130;5.028;2023-02-23T13:01:48;101730.81;;;16.68;56.21
30302;BME280;17111;52.130;5.028;2023-02-23T13:07:08;101721.69;;;16.70;56.75
30302;BME280;17111;52.130;5.028;2023-02-23T13:10:08;101722.44;;;16.72;56.68
30302;BME280;17111;52.130;5.028;2023-02-23T13:15:29;101731.06;;;16.76;56.11
30302;BME280;17111;52.130;5.028;2023-02-23T13:20:44;101724.63;;;16.78;55.87
30302;BME280;17111;52.130;5.028;2023-02-23T13:28:51;101728.06;;;16.81;55.88
30302;BME280;17111;52.130;5.028;2023-02-23T13:31:25;101736.09;;;16.81;56.40
30302;BME280;17111;52.130;5.028;2023-02-23T13:33:53;101728.91;;;16.81;56.05
30302;BME280;17111;52.130;5.028;2023-02-23T13:36:20;101731.19;;;16.86;56.29
30302;BME280;17111;52.130;5.028;2023-02-23T13:41:51;101729.50;;;16.85;55.78
30302;BME280;17111;52.130;5.028;2023-02-23T13:47:00;101729.50;;;16.85;56.38
30302;BME280;17111;52.130;5.028;2023-02-23T13:52:38;101744.69;;;16.84;56.09
30302;BME280;17111;52.130;5.028;2023-02-23T13:58:14;101740.22;;;16.85;56.49
30302;BME280;17111;52.130;5.028;2023-02-23T14:00:42;101733.75;;;16.87;56.36
30302;BME280;17111;52.130;5.028;2023-02-23T14:03:21;101737.25;;;16.88;56.10
30302;BME280;17111;52.130;5.028;2023-02-23T14:05:54;101734.47;;;16.89;56.46
30302;BME280;17111;52.130;5.028;2023-02-23T14:08:32;101741.53;;;16.90;55.75
30302;BME280;17111;52.130;5.028;2023-02-23T14:11:00;101740.56;;;16.91;56.02
30302;BME280;17111;52.130;5.028;2023-02-23T14:13:32;101746.75;;;16.92;56.66
30302;BME280;17111;52.130;5.028;2023-02-23T14:16:14;101737.78;;;16.93;56.22
30302;BME280;17111;52.130;5.028;2023-02-23T14:19:10;101752.94;;;16.92;56.88
30302;BME280;17111;52.130;5.028;2023-02-23T14:22:17;101755.53;;;16.94;56.91
30302;BME280;17111;52.130;5.028;2023-02-23T14:24:36;101755.38;;;16.95;57.20
30302;BME280;17111;52.130;5.028;2023-02-23T14:27:15;101751.88;;;16.95;56.62
30302;BME280;17111;52.130;5.028;2023-02-23T14:32:44;101751.88;;;16.95;56.89
30302;BME280;17111;52.130;5.028;2023-02-23T14:35:35;101732.41;;;16.93;57.24
30302;BME280;17111;52.130;5.028;2023-02-23T14:38:14;101735.78;;;16.95;57.41
30302;BME280;17111;52.130;5.028;2023-02-23T14:40:42;101738.47;;;16.95;57.42
30302;BME280;17111;52.130;5.028;2023-02-23T14:43:38;101735.78;;;16.95;57.73
30302;BME280;17111;52.130;5.028;2023-02-23T14:46:12;101736.41;;;16.98;57.21
30302;BME280;17111;52.130;5.028;2023-02-23T14:48:44;101733.59;;;17.00;57.20
30302;BME280;17111;52.130;5.028;2023-02-23T14:51:37;101739.81;;;17.00;57.35
30302;BME280;17111;52.130;5.028;2023-02-23T14:54:38;101742.50;;;17.00;57.62
30302;BME280;17111;52.130;5.028;2023-02-23T14:57:18;101747.72;;;17.02;57.29
30302;BME280;17111;52.130;5.028;2023-02-23T14:59:56;101758.44;;;17.02;57.33
30302;BME280;17111;52.130;5.028;2023-02-23T15:02:25;101749.56;;;17.01;57.44